Latest Weather Observations for Double Island Point

IDQ60901

Issued at 10:01 pm EST Monday 22 April 2019 (issued every 10 minutes, with the page automatically refreshed every 10 minutes)

About weather observations | Map of Brisbane area stations | Latest observations for Brisbane area | Other Formats
Station Details ID: 040068 Name: DOUBLE ISLAND POINT LIGHTHOUSE Lat: -25.93 Lon: 153.19 Height: 95.64 m
Data from the previous 72 hours. | See also: Recent months at Double Island Point
Date/Time
EST
Temp
°C
App
Temp
°C
Dew
Point
°C
Rel
Hum
%
Delta-T
°C
Wind Press
QNH
hPa
Press
MSL
hPa
Rain since
9am
mm
Dir  Spd
km/h
Gust
km/h
Spd
kts
Gust
kts
22/10:00pm 23.0 18.4 20.0 83 1.9 ESE 44 52 24 28 1020.4 1020.0 1.8
22/09:30pm 23.1 18.6 19.9 82 2.1 ESE 43 50 23 27 1020.6 1020.2 1.8
22/09:00pm 22.9 18.0 19.5 81 2.2 ESE 44 50 24 27 1020.6 1020.2 1.8
22/08:30pm 22.5 18.6 19.5 83 1.9 ESE 39 46 21 25 1020.4 1020.0 1.8
22/08:00pm 22.4 19.7 20.5 89 1.2 ESE 35 46 19 25 1020.1 1019.7 1.8
22/07:30pm 22.8 18.3 19.8 83 1.9 ESE 43 48 23 26 1019.8 1019.4 1.6
22/07:00pm 22.8 17.9 19.4 81 2.2 ESE 44 52 24 28 1019.6 1019.2 1.6
22/06:30pm 22.6 17.6 20.1 86 1.6 ESE 46 54 25 29 1019.2 1018.8 1.6
22/06:00pm 22.7 17.9 19.7 83 1.9 ESE 44 54 24 29 1018.9 1018.5 1.6
22/05:30pm 22.7 18.6 19.9 84 1.8 ESE 41 50 22 27 1018.7 1018.3 1.4
22/05:00pm 21.9 19.5 20.4 91 1.0 ESE 33 43 18 23 1018.6 1018.2 1.4
22/04:39pm 22.5 20.6 20.2 87 1.5 ESE 30 48 16 26 1018.6 1018.2 0.0
22/04:30pm 22.6 20.9 19.9 85 1.7 ESE 28 35 15 19 1018.5 1018.1 0.0
22/04:00pm 23.5 18.9 19.6 79 2.5 ESE 43 56 23 30 1018.3 1017.9 0.0
22/03:30pm 23.7 19.0 18.6 73 3.2 ESE 41 48 22 26 1018.2 1017.8 0.0
22/03:00pm 23.7 18.6 19.8 79 2.5 ESE 46 54 25 29 1018.1 1017.7 0.0
22/02:30pm 24.0 20.1 20.3 80 2.4 ESE 41 50 22 27 1018.0 1017.6 0.0
22/02:00pm 24.5 20.4 19.1 72 3.5 ESE 39 43 21 23 1018.2 1017.8 0.0
22/01:30pm 24.7 21.9 20.2 76 2.9 SE 35 43 19 23 1018.3 1017.9 0.0
22/01:00pm 24.3 21.6 19.6 75 3.0 SE 33 41 18 22 1018.3 1017.9 0.0
22/12:30pm 23.8 20.3 19.7 78 2.6 SE 37 46 20 25 1018.6 1018.2 0.0
22/12:00pm 24.1 20.1 19.4 75 3.0 ESE 39 46 21 25 1018.8 1018.4 0.0
22/11:30am 24.5 20.3 19.8 75 3.0 SE 41 46 22 25 1019.2 1018.8 0.0
22/11:00am 24.2 19.4 19.3 74 3.1 SE 43 48 23 26 1019.5 1019.1 0.0
22/10:30am 24.3 19.3 18.9 72 3.4 SE 43 50 23 27 1019.6 1019.2 0.0
22/10:00am 24.1 18.9 18.7 72 3.4 SE 44 52 24 28 1019.7 1019.3 0.0
22/09:30am 24.3 19.2 18.5 70 3.7 ESE 43 50 23 27 1019.9 1019.5 0.0
22/09:00am 24.2 18.6 18.8 72 3.4 ESE 46 54 25 29 1019.8 1019.4 6.4
22/08:30am 23.7 17.9 18.4 72 3.4 SE 46 54 25 29 1019.5 1019.1 6.4
22/08:00am 23.5 17.9 18.8 75 3.0 SE 46 54 25 29 1019.1 1018.7 6.4
22/07:30am 23.4 18.2 18.9 76 2.9 SE 44 50 24 27 1018.8 1018.4 6.4
22/07:00am 23.2 17.8 18.3 74 3.1 ESE 44 52 24 28 1018.6 1018.2 6.4
22/06:30am 22.9 17.1 18.2 75 3.0 ESE 46 54 25 29 1018.3 1017.9 6.4
22/06:00am 22.8 17.8 18.8 78 2.5 ESE 43 50 23 27 1018.2 1017.8 6.4
22/05:30am 22.7 17.6 18.5 77 2.7 ESE 43 52 23 28 1018.0 1017.6 6.4
22/05:00am 22.7 17.6 18.7 78 2.5 ESE 43 50 23 27 1017.6 1017.2 6.4
22/04:30am 22.6 17.4 18.4 77 2.6 ESE 43 50 23 27 1017.7 1017.3 6.4
22/04:00am 22.3 16.6 18.5 79 2.4 ESE 46 54 25 29 1017.7 1017.3 6.4
22/03:35am 21.4 16.5 19.1 87 1.5 SE 43 61 23 33 1017.4 1017.0 6.4
22/03:30am 21.5 15.3 18.3 82 2.0 ESE 48 61 26 33 1017.3 1016.9 6.4
22/03:00am 20.6 15.2 19.1 91 0.9 ESE 46 76 25 41 1017.9 1017.5 6.4
22/02:52am 20.8 13.9 17.4 81 2.1 E 50 76 27 41 1017.6 1017.2 4.8
22/02:46am 22.1 17.0 18.5 80 2.3 E 43 59 23 32 1017.9 1017.5 4.8
22/02:30am 22.9 16.7 19.1 79 2.4 ESE 50 59 27 32 1017.9 1017.5 4.8
22/02:00am 22.8 15.8 18.1 75 2.9 ESE 52 57 28 31 1018.4 1018.0 4.8
22/01:30am 23.1 17.7 18.4 75 3.0 ESE 44 52 24 28 1018.7 1018.3 4.8
22/01:00am 23.1 17.7 19.1 78 2.5 ESE 46 56 25 30 1018.7 1018.3 4.8
22/12:30am 23.2 18.0 18.9 77 2.7 ESE 44 54 24 29 1019.0 1018.6 4.8
22/12:00am 23.2 18.0 18.9 77 2.7 ESE 44 54 24 29 1019.2 1018.8 4.8
 
Date/Time
EST
Temp
°C
App
Temp
°C
Dew
Point
°C
Rel
Hum
%
Delta-T
°C
Wind Press
QNH
hPa
Press
MSL
hPa
Rain since
9am
mm
Dir  Spd
km/h
Gust
km/h
Spd
kts
Gust
kts
21/11:30pm 23.3 18.1 18.8 76 2.9 ESE 44 52 24 28 1019.4 1019.0 4.8
21/11:00pm 23.0 16.2 18.7 77 2.7 ESE 52 61 28 33 1019.5 1019.1 4.8
21/10:30pm 23.3 17.6 18.6 75 3.0 ESE 46 54 25 29 1020.0 1019.6 4.8
21/10:00pm 23.3 17.5 18.4 74 3.1 ESE 46 56 25 30 1019.9 1019.5 4.8
21/09:30pm 23.3 18.4 19.5 79 2.4 ESE 44 52 24 28 1019.9 1019.5 4.8
21/09:00pm 23.1 18.1 18.8 77 2.7 ESE 43 52 23 28 1019.8 1019.4 4.8
21/08:34pm 22.0 17.2 19.2 84 1.8 ESE 43 61 23 33 1019.8 1019.4 4.8
21/08:30pm 22.4 16.8 18.8 80 2.3 ESE 46 61 25 33 1019.6 1019.2 4.6
21/08:00pm 23.5 19.1 19.2 77 2.7 ESE 41 46 22 25 1019.5 1019.1 4.6
21/07:30pm 23.0 18.7 19.6 81 2.2 SE 41 48 22 26 1019.3 1018.9 4.6
21/07:00pm 23.2 18.0 19.6 80 2.3 SE 46 54 25 29 1018.8 1018.4 4.6
21/06:30pm 23.1 17.8 19.5 80 2.3 SE 46 54 25 29 1018.5 1018.1 4.6
21/06:00pm 22.7 18.1 19.7 83 1.9 SE 43 54 23 29 1018.2 1017.8 4.6
21/05:52pm 22.2 19.7 19.7 86 1.6 ESE 32 50 17 27 1018.4 1018.0 4.6
21/05:30pm 22.8 18.6 19.8 83 1.9 ESE 41 50 22 27 1018.3 1017.9 4.6
21/05:00pm 22.4 18.0 20.1 87 1.5 ESE 43 52 23 28 1018.0 1017.6 4.6
21/04:57pm 22.4 18.4 20.1 87 1.5 ESE 41 52 22 28 1018.0 1017.6 4.6
21/04:30pm 23.7 18.3 19.2 76 2.9 SE 46 52 25 28 1018.0 1017.6 4.6
21/04:00pm 23.8 18.6 18.4 72 3.4 SE 43 50 23 27 1018.1 1017.7 4.6
21/03:30pm 24.0 18.8 18.9 73 3.3 SE 44 50 24 27 1018.0 1017.6 4.6
21/03:00pm 24.0 18.6 18.4 71 3.5 SE 44 50 24 27 1018.1 1017.7 4.6
21/02:30pm 24.1 18.0 17.6 67 4.1 SE 46 52 25 28 1018.1 1017.7 4.6
21/02:00pm 24.3 18.6 18.5 70 3.7 SE 46 54 25 29 1018.2 1017.8 4.6
21/01:30pm 24.4 18.8 18.8 71 3.6 SE 46 56 25 30 1018.2 1017.8 4.6
21/01:00pm 24.6 19.2 19.2 72 3.5 SE 46 56 25 30 1018.5 1018.1 4.6
21/12:30pm 24.8 19.3 19.0 70 3.7 SE 46 54 25 29 1018.6 1018.2 4.6
21/12:00pm 24.9 20.2 19.5 72 3.5 SE 43 52 23 28 1018.8 1018.4 4.6
21/11:30am 24.4 19.4 19.2 73 3.3 SE 44 54 24 29 1019.2 1018.8 0.0
21/11:00am 24.6 19.7 19.4 73 3.3 SE 44 52 24 28 1019.4 1019.0 0.0
21/10:30am 24.6 20.0 20.1 76 2.9 SE 44 50 24 27 1019.7 1019.3 0.0
21/10:00am 23.7 18.1 19.6 78 2.6 SE 48 61 26 33 1019.8 1019.4 0.0
21/09:30am 23.1 18.1 20.1 83 1.9 SE 46 54 25 29 1019.7 1019.3 0.0
21/09:00am 22.5 20.1 20.4 88 1.4 SSE 33 43 18 23 1020.1 1019.7 3.0
21/08:30am 24.4 20.0 19.2 73 3.3 SE 41 46 22 25 1020.0 1019.6 3.0
21/08:00am 24.0 19.5 19.9 78 2.6 SE 43 50 23 27 1019.8 1019.4 3.0
21/07:30am 23.9 20.1 19.8 78 2.6 SE 39 50 21 27 1019.7 1019.3 3.0
21/07:00am 23.7 18.7 19.2 76 2.9 SE 44 52 24 28 1019.3 1018.9 3.0
21/06:30am 23.4 17.8 18.7 75 3.0 SE 46 56 25 30 1019.0 1018.6 3.0
21/06:00am 23.5 18.1 19.2 77 2.7 SE 46 54 25 29 1018.9 1018.5 3.0
21/05:30am 23.4 17.1 18.9 76 2.9 ESE 50 59 27 32 1018.5 1018.1 3.0
21/05:00am 23.5 18.0 19.8 80 2.4 ESE 48 57 26 31 1018.2 1017.8 3.0
21/04:30am 23.4 17.3 19.3 78 2.6 ESE 50 57 27 31 1017.7 1017.3 3.0
21/04:00am 23.3 16.9 19.5 79 2.4 ESE 52 59 28 32 1017.6 1017.2 3.0
21/03:30am 23.4 17.3 19.3 78 2.6 ESE 50 57 27 31 1017.8 1017.4 3.0
21/03:00am 23.4 16.1 19.3 78 2.6 ESE 56 61 30 33 1017.7 1017.3 3.0
21/02:30am 23.4 16.8 19.8 80 2.3 ESE 54 61 29 33 1017.7 1017.3 3.0
21/02:00am 23.6 17.8 20.7 84 1.9 ESE 52 59 28 32 1018.1 1017.7 3.0
21/01:30am 23.6 17.1 20.1 81 2.3 ESE 54 65 29 35 1018.5 1018.1 3.0
21/01:00am 23.5 17.8 20.2 82 2.1 ESE 50 61 27 33 1018.7 1018.3 3.0
21/12:30am 23.5 17.1 20.2 82 2.1 ESE 54 61 29 33 1018.8 1018.4 3.0
21/12:00am 23.5 17.2 20.6 84 1.9 ESE 54 61 29 33 1018.8 1018.4 3.0
 
Date/Time
EST
Temp
°C
App
Temp
°C
Dew
Point
°C
Rel
Hum
%
Delta-T
°C
Wind Press
QNH
hPa
Press
MSL
hPa
Rain since
9am
mm
Dir  Spd
km/h
Gust
km/h
Spd
kts
Gust
kts
20/11:30pm 23.3 17.1 20.8 86 1.6 ESE 54 61 29 33 1019.1 1018.7 3.0
20/11:00pm 23.4 17.0 20.3 83 2.0 ESE 54 63 29 34 1018.8 1018.4 3.0
20/10:30pm 23.3 17.4 20.6 85 1.8 ESE 52 61 28 33 1019.3 1018.9 3.0
20/10:00pm 23.3 18.1 21.2 88 1.4 ESE 50 61 27 33 1019.1 1018.7 3.0
20/09:30pm 23.2 18.8 21.3 89 1.3 ESE 46 57 25 31 1019.3 1018.9 3.0
20/09:11pm 22.9 17.4 21.4 91 1.0 ESE 52 63 28 34 1019.1 1018.7 3.0
20/09:00pm 22.5 20.7 21.5 94 0.7 ESE 33 43 18 23 1019.5 1019.1 2.8
20/08:30pm 22.0 16.6 20.8 93 0.8 E 50 57 27 31 1019.4 1019.0 2.4
20/08:07pm 22.9 17.2 21.0 89 1.2 ESE 52 76 28 41 1019.1 1018.7 2.4
20/08:00pm 23.0 19.0 21.3 90 1.1 ESE 44 54 24 29 1019.1 1018.7 2.4
20/07:30pm 23.0 18.3 21.5 91 1.0 ESE 48 56 26 30 1019.0 1018.6 2.4
20/07:00pm 23.0 18.2 21.3 90 1.1 ESE 48 59 26 32 1018.5 1018.1 2.4
20/06:30pm 22.7 19.9 21.7 94 0.7 ESE 39 46 21 25 1018.2 1017.8 2.2
20/06:02pm 23.6 20.1 21.1 86 1.6 ESE 41 63 22 34 1018.0 1017.6 0.4
20/06:00pm 23.8 21.1 21.3 86 1.6 ESE 37 52 20 28 1018.0 1017.6 0.4
20/05:30pm 23.7 20.1 21.0 85 1.8 ESE 41 48 22 26 1018.1 1017.7 0.4
20/05:00pm 23.6 20.3 20.9 85 1.8 ESE 39 48 21 26 1017.8 1017.4 0.4
20/04:30pm 23.2 19.7 20.5 85 1.8 ESE 39 43 21 23 1017.8 1017.4 0.4
20/04:00pm 22.4 18.0 20.5 89 1.2 ESE 44 56 24 30 1017.5 1017.1 0.4
20/03:30pm 23.4 20.2 21.1 87 1.5 ESE 39 44 21 24 1017.7 1017.3 0.4
20/03:00pm 22.8 16.9 19.8 83 1.9 ESE 50 67 27 36 1017.5 1017.1 0.4
20/02:56pm 23.9 19.6 20.8 83 2.0 ESE 44 63 24 34 1017.5 1017.1 0.4
20/02:30pm 23.2 17.7 21.3 89 1.3 ESE 52 61 28 33 1017.5 1017.1 0.4
20/02:00pm 24.0 20.1 21.5 86 1.7 SE 44 52 24 28 1017.8 1017.4 0.4
20/01:41pm 24.2 21.2 21.3 84 1.9 SE 39 57 21 31 1017.7 1017.3 0.4
20/01:30pm 23.6 21.1 21.7 89 1.3 SE 37 54 20 29 1017.9 1017.5 0.4
20/01:00pm 24.9 21.7 21.0 79 2.6 SE 39 46 21 25 1018.3 1017.9 0.4
20/12:30pm 24.8 21.3 21.1 80 2.4 SE 41 46 22 25 1018.6 1018.2 0.4
20/12:00pm 24.5 20.6 21.2 82 2.2 SE 43 54 23 29 1019.1 1018.7 0.4
20/11:30am 23.8 20.0 20.5 82 2.2 SE 41 57 22 31 1019.4 1019.0 0.2
20/11:29am 24.5 21.3 21.0 81 2.3 SE 39 57 21 31 1019.5 1019.1 0.2
20/11:00am 25.1 21.8 20.8 77 2.8 ESE 39 46 21 25 1020.1 1019.7 0.2
20/10:30am 25.2 21.3 21.1 78 2.7 ESE 43 48 23 26 1020.3 1019.9 0.2
20/10:00am 25.0 20.3 19.8 73 3.4 ESE 44 52 24 28 1020.4 1020.0 0.2
20/09:30am 24.7 20.5 20.6 78 2.7 SE 43 50 23 27 1020.6 1020.2 0.0
20/09:00am 23.7 19.2 19.8 79 2.5 ESE 43 52 23 28 1020.5 1020.1 1.8
20/08:30am 23.9 20.5 20.6 82 2.2 SE 39 44 21 24 1020.3 1019.9 1.8
20/08:23am 23.0 18.5 20.3 85 1.8 SE 44 63 24 34 1020.3 1019.9 1.8
20/08:00am 23.9 19.5 20.4 81 2.3 ESE 44 54 24 29 1020.1 1019.7 1.8
20/07:30am 23.7 18.9 20.4 82 2.2 ESE 46 54 25 29 1019.9 1019.5 1.8
20/07:00am 23.5 17.8 20.2 82 2.1 SE 50 59 27 32 1019.4 1019.0 1.8
20/06:30am 23.5 18.2 20.2 82 2.1 SE 48 56 26 30 1018.8 1018.4 1.8
20/06:00am 23.5 18.6 20.2 82 2.1 SE 46 56 25 30 1018.5 1018.1 1.8
20/05:30am 23.6 17.5 20.1 81 2.3 ESE 52 59 28 32 1018.4 1018.0 1.8
20/05:00am 23.4 16.9 20.0 81 2.2 ESE 54 61 29 33 1018.4 1018.0 1.8
20/04:30am 23.3 18.5 20.4 84 1.9 SE 46 56 25 30 1018.3 1017.9 1.8
20/04:00am 23.4 17.7 20.2 82 2.1 ESE 50 59 27 32 1017.8 1017.4 1.8
20/03:30am 23.4 17.0 20.2 82 2.1 ESE 54 63 29 34 1017.7 1017.3 1.8
20/03:00am 23.5 17.1 20.2 82 2.1 ESE 54 63 29 34 1017.9 1017.5 1.8
20/02:30am 23.3 16.9 20.2 83 2.0 ESE 54 61 29 33 1018.0 1017.6 1.8
20/02:13am 22.8 18.7 21.1 90 1.1 ESE 44 63 24 34 1018.2 1017.8 1.8
20/02:00am 21.5 14.7 19.4 88 1.3 SE 54 69 29 37 1018.3 1017.9 1.8
20/01:30am 23.3 17.7 20.4 84 1.9 ESE 50 63 27 34 1018.3 1017.9 1.8
20/01:00am 22.8 15.8 20.3 86 1.6 SE 57 67 31 36 1018.5 1018.1 1.8
20/12:30am 23.4 17.1 20.5 84 1.9 ESE 54 59 29 32 1019.0 1018.6 1.8
20/12:00am 23.0 17.2 20.7 87 1.5 ESE 52 57 28 31 1019.2 1018.8 1.8
 
Date/Time
EST
Temp
°C
App
Temp
°C
Dew
Point
°C
Rel
Hum
%
Delta-T
°C
Wind Press
QNH
hPa
Press
MSL
hPa
Rain since
9am
mm
Dir  Spd
km/h
Gust
km/h
Spd
kts
Gust
kts
19/11:30pm 22.0 19.3 20.5 91 1.0 ESE 35 61 19 33 1019.8 1019.4 1.6
19/11:00pm 21.4 16.4 20.0 92 0.9 ESE 46 65 25 35 1020.0 1019.6 1.4
19/10:47pm 23.1 19.0 20.8 87 1.5 ESE 43 63 23 34 1019.9 1019.5 0.2
19/10:30pm 23.0 18.9 21.1 89 1.2 ESE 44 54 24 29 1020.0 1019.6 0.2
19/10:22pm 22.7 18.8 21.2 91 1.0 E 43 61 23 33 1020.1 1019.7 0.2

Latest Capital City Observations: Canberra | Sydney | Melbourne | Brisbane | Adelaide | Perth | Hobart | Darwin

Other formats

Comma delimited format used in spreadsheet applications
http://www.bom.gov.au/fwo/IDQ60901/IDQ60901.94584.axf

JavaScript Object Notation format (JSON) in row-major order
http://www.bom.gov.au/fwo/IDQ60901/IDQ60901.94584.json

Data quality

Most of these data are generated automatically and are frequently updated. Quality checks on data are not normally performed. It is possible for incorrect values to appear. Refer to information at About Latest Weather Observations and please check the disclaimer before using these data.